Heat Index [SAI AWOS/ASOS Display]_________FAA Disclaimer: "Not for use in aviation at this time______________" Untitled Document
Hamilton Municipal Airport NY (VGC)
210
18:30
17/11/24
08
N/A
N/A
29.86
N/A
1134
48(F), 9(C)
22(F), -6(C)
44 F
34%
CLR
10
N/A
N/A
N/A
18:30 zulu Wind 210 at 08 Knots, Altimeter 29.86
METAR KVGC 241830Z AUTO 21008KT 10SM CLR 09/M06 A2986 A02
METAR:
FAA Disclaimer--Advisory Use ONLY, not for flight info--
INFO:
Wind Direction:
Wind Speed:
Wind Gust:
Wind Variable:
Altimeter:
Dens Alt:
Elev:
Temp:
Dwpt:
Wind Chill
Rel Humidity:
Ceiling:
Visibility:
Prsnt Wea:
PCPN:
Remarks:
How to read the WebPage